KMCW

Mason City Municipal Airport

Mason City, Iowa, USA
METAR KMCW 192053Z AUTO 02012KT 1 1/2SM -FZRA BR OVC003 M01/M02 A2972 RMK AO2 FZRAB1956 SLP070 P0000 60000 I1003 I3006 T10061017 51008
Observed Flight Rules
Feb-19 @ 20:53 UTC (37 minutes ago) Instrument Flight Rules
Wind Visibility Clouds Conditions
20° at 12 knots 1 1/2 miles
  • Overcast at 300' AGL
  • Light Freezing
  • Light Rain
  • Mist
Temperatures Readings Precipitation
Current -1°C / 30°F
Dewpoint -2°C / 28°F
Humidity 93%
Altimeter 29.72" Hg
Pressure 1007 hPa
Elevation 369
Current Rain 0.005
METAR KMCW 192053Z AUTO 02012KT 1 1/2SM -FZRA BR OVC003 M01/M02 A2972 RMK AO2 FZRAB1956 SLP070 P0000 60000 I1003 I3006 T10061017 51008
Observed Flight Rules
Feb-19 @ 20:53 UTC
(37 minutes ago)
LIFR
Wind Visibility
20° at 12 knots 1 1/2 miles
Clouds
  • Overcast at 300' AGL
Conditions
  • Light Freezing
  • Light Rain
  • Mist
Temperature Dewpoint
-1°C / 30°F -2°C / 28°F
Humidity Altimeter Pressure
93% 29.72" Hg 1007 hPa
Current Rain
0.005